DWI2904 MDPC-TNCA
Flight info
| Callsign | DWI2904 |
|---|---|
| Flight time | 1h 6m |
| Altitude | 32000 |
| Route | POKAK2T POKAK DCT VODER DCT IGROM |
| Aircraft | B38M/M-SDE1FGHILORVWXY/HB1 |
Departure
| Time | 2026-04-30 02:01 |
|---|---|
| Airport | Punta Cana International Airport (MDPC) |
Arrival
| Time | 2026-04-30 03:07 |
|---|---|
| Airport | Queen Beatrix International Airport (TNCA) |
| Time | Latitude | Longitude | Altitude | Speed | Heading |
|---|---|---|---|---|---|
| 2026-04-30 01:30 | 18.56366 | -68.36797 | 53 ft | 0 kts | 264° |
| 2026-04-30 01:51 | 18.56366 | -68.36793 | 53 ft | 2 kts | 264° |
| 2026-04-30 01:52 | 18.56368 | -68.36776 | 53 ft | 2 kts | 266° |
| 2026-04-30 01:52 | 18.56369 | -68.36759 | 53 ft | 2 kts | 271° |
| 2026-04-30 01:52 | 18.56365 | -68.36742 | 53 ft | 2 kts | 328° |
| 2026-04-30 01:52 | 18.56355 | -68.36739 | 53 ft | 1 kts | 354° |
| 2026-04-30 01:56 | 18.56363 | -68.36740 | 53 ft | 4 kts | 354° |
| 2026-04-30 01:56 | 18.56423 | -68.36745 | 50 ft | 12 kts | 354° |
| 2026-04-30 01:56 | 18.56516 | -68.36773 | 53 ft | 15 kts | 307° |
| 2026-04-30 01:57 | 18.56515 | -68.36849 | 53 ft | 11 kts | 263° |
| 2026-04-30 01:57 | 18.56508 | -68.36939 | 50 ft | 13 kts | 265° |
| 2026-04-30 01:57 | 18.56499 | -68.37043 | 53 ft | 15 kts | 265° |
| 2026-04-30 01:57 | 18.56488 | -68.37162 | 53 ft | 17 kts | 264° |
| 2026-04-30 01:58 | 18.56478 | -68.37295 | 53 ft | 19 kts | 265° |
| 2026-04-30 01:58 | 18.56465 | -68.37442 | 53 ft | 21 kts | 265° |
| 2026-04-30 01:58 | 18.56452 | -68.37601 | 51 ft | 23 kts | 263° |
| 2026-04-30 01:58 | 18.56449 | -68.37746 | 51 ft | 19 kts | 291° |
| 2026-04-30 01:59 | 18.56617 | -68.37718 | 52 ft | 15 kts | 87° |
| 2026-04-30 01:59 | 18.56620 | -68.37688 | 51 ft | 0 kts | 85° |
| 2026-04-30 01:59 | 18.56620 | -68.37686 | 51 ft | 1 kts | 85° |
| 2026-04-30 02:00 | 18.56625 | -68.37621 | 54 ft | 19 kts | 85° |
| 2026-04-30 02:00 | 18.56657 | -68.37252 | 53 ft | 82 kts | 85° |
| 2026-04-30 02:00 | 18.56727 | -68.36449 | 55 ft | 136 kts | 85° |
| 2026-04-30 02:00 | 18.56828 | -68.35300 | 176 ft | 169 kts | 85° |
| 2026-04-30 02:01 | 18.56944 | -68.34031 | 669 ft | 178 kts | 82° |
| 2026-04-30 02:01 | 18.57073 | -68.32745 | 1392 ft | 179 kts | 82° |
| 2026-04-30 02:01 | 18.57178 | -68.31412 | 1979 ft | 188 kts | 85° |
| 2026-04-30 02:01 | 18.57087 | -68.29986 | 2424 ft | 209 kts | 108° |
| 2026-04-30 02:02 | 18.56237 | -68.28649 | 2840 ft | 234 kts | 134° |
| 2026-04-30 02:02 | 18.55008 | -68.27445 | 3315 ft | 254 kts | 135° |
| 2026-04-30 02:02 | 18.53655 | -68.26143 | 3828 ft | 271 kts | 142° |
| 2026-04-30 02:02 | 18.51935 | -68.25363 | 4714 ft | 274 kts | 169° |
| 2026-04-30 02:03 | 18.50020 | -68.25368 | 5003 ft | 277 kts | 187° |
| 2026-04-30 02:03 | 18.48112 | -68.25630 | 5008 ft | 276 kts | 186° |
| 2026-04-30 02:03 | 18.46204 | -68.25868 | 5577 ft | 272 kts | 186° |
| 2026-04-30 02:03 | 18.44322 | -68.26106 | 6473 ft | 275 kts | 186° |
| 2026-04-30 02:04 | 18.42387 | -68.26350 | 7082 ft | 285 kts | 186° |
| 2026-04-30 02:04 | 18.40416 | -68.26600 | 7888 ft | 285 kts | 187° |
| 2026-04-30 02:04 | 18.38435 | -68.26851 | 8659 ft | 289 kts | 187° |
| 2026-04-30 02:04 | 18.36424 | -68.27106 | 9423 ft | 292 kts | 187° |
| 2026-04-30 02:05 | 18.34393 | -68.27363 | 10172 ft | 296 kts | 188° |
| 2026-04-30 02:05 | 18.33027 | -68.27535 | 10557 ft | 303 kts | 188° |
| 2026-04-30 02:05 | 18.30871 | -68.27808 | 10954 ft | 320 kts | 188° |
| 2026-04-30 02:05 | 18.28622 | -68.28093 | 11417 ft | 333 kts | 188° |
| 2026-04-30 02:06 | 18.26287 | -68.28388 | 12129 ft | 336 kts | 188° |
| 2026-04-30 02:06 | 18.23969 | -68.28681 | 12956 ft | 337 kts | 188° |
| 2026-04-30 02:06 | 18.21628 | -68.28978 | 13691 ft | 341 kts | 188° |
| 2026-04-30 02:06 | 18.19263 | -68.29276 | 14385 ft | 344 kts | 188° |
| 2026-04-30 02:07 | 18.16872 | -68.29579 | 15089 ft | 348 kts | 188° |
| 2026-04-30 02:07 | 18.14455 | -68.29884 | 15784 ft | 351 kts | 188° |
| 2026-04-30 02:07 | 18.12024 | -68.30192 | 16457 ft | 354 kts | 188° |
| 2026-04-30 02:07 | 18.09560 | -68.30503 | 17126 ft | 357 kts | 188° |
| 2026-04-30 02:08 | 18.07088 | -68.30815 | 17780 ft | 360 kts | 189° |
| 2026-04-30 02:08 | 18.04591 | -68.31131 | 18406 ft | 363 kts | 189° |
| 2026-04-30 02:08 | 18.02078 | -68.31448 | 18952 ft | 365 kts | 189° |
| 2026-04-30 02:08 | 17.99544 | -68.31767 | 19511 ft | 367 kts | 189° |
| 2026-04-30 02:09 | 17.97000 | -68.32088 | 20043 ft | 370 kts | 189° |
| 2026-04-30 02:09 | 17.94477 | -68.32406 | 20586 ft | 371 kts | 189° |
| 2026-04-30 02:09 | 17.91903 | -68.32731 | 21123 ft | 373 kts | 189° |
| 2026-04-30 02:09 | 17.89317 | -68.33057 | 21648 ft | 376 kts | 190° |
| 2026-04-30 02:10 | 17.86713 | -68.33385 | 22162 ft | 378 kts | 190° |
| 2026-04-30 02:10 | 17.84091 | -68.33715 | 22672 ft | 380 kts | 190° |
| 2026-04-30 02:10 | 17.81454 | -68.34047 | 23169 ft | 382 kts | 190° |
| 2026-04-30 02:10 | 17.78798 | -68.34381 | 23647 ft | 385 kts | 190° |
| 2026-04-30 02:11 | 17.76129 | -68.34717 | 24036 ft | 387 kts | 191° |
| 2026-04-30 02:11 | 17.73442 | -68.35056 | 24398 ft | 391 kts | 191° |
| 2026-04-30 02:11 | 17.70739 | -68.35396 | 24785 ft | 393 kts | 191° |
| 2026-04-30 02:11 | 17.68005 | -68.35739 | 25165 ft | 396 kts | 191° |
| 2026-04-30 02:12 | 17.65259 | -68.36084 | 25515 ft | 399 kts | 191° |
| 2026-04-30 02:12 | 17.62523 | -68.36428 | 25885 ft | 402 kts | 192° |
| 2026-04-30 02:12 | 17.59734 | -68.36779 | 26239 ft | 405 kts | 192° |
| 2026-04-30 02:12 | 17.56921 | -68.37132 | 26590 ft | 408 kts | 192° |
| 2026-04-30 02:13 | 17.54099 | -68.37486 | 26952 ft | 411 kts | 192° |
| 2026-04-30 02:13 | 17.51238 | -68.37845 | 27298 ft | 414 kts | 192° |
| 2026-04-30 02:13 | 17.48367 | -68.38205 | 27626 ft | 417 kts | 192° |
| 2026-04-30 02:13 | 17.45479 | -68.38567 | 27970 ft | 420 kts | 193° |
| 2026-04-30 02:14 | 17.42565 | -68.38933 | 28302 ft | 422 kts | 193° |
| 2026-04-30 02:14 | 17.39643 | -68.39299 | 28625 ft | 425 kts | 193° |
| 2026-04-30 02:14 | 17.36692 | -68.39669 | 28944 ft | 428 kts | 193° |
| 2026-04-30 02:14 | 17.33727 | -68.40040 | 29268 ft | 431 kts | 193° |
| 2026-04-30 02:15 | 17.30739 | -68.40414 | 29587 ft | 433 kts | 193° |
| 2026-04-30 02:15 | 17.27739 | -68.40789 | 29895 ft | 436 kts | 193° |
| 2026-04-30 02:15 | 17.24713 | -68.41168 | 30173 ft | 439 kts | 194° |
| 2026-04-30 02:15 | 17.21676 | -68.41548 | 30445 ft | 440 kts | 194° |
| 2026-04-30 02:16 | 17.18624 | -68.41929 | 30743 ft | 442 kts | 194° |
| 2026-04-30 02:16 | 17.15568 | -68.42311 | 31016 ft | 444 kts | 194° |
| 2026-04-30 02:16 | 17.12495 | -68.42695 | 31300 ft | 445 kts | 194° |
| 2026-04-30 02:16 | 17.09456 | -68.43075 | 31569 ft | 447 kts | 194° |
| 2026-04-30 02:17 | 17.06327 | -68.43466 | 31878 ft | 447 kts | 194° |
| 2026-04-30 02:17 | 17.03283 | -68.43845 | 31984 ft | 446 kts | 194° |
| 2026-04-30 02:17 | 17.00198 | -68.44230 | 31978 ft | 445 kts | 194° |
| 2026-04-30 02:18 | 16.94060 | -68.44996 | 31982 ft | 444 kts | 194° |
| 2026-04-30 02:18 | 16.87917 | -68.45762 | 31982 ft | 444 kts | 194° |
| 2026-04-30 02:19 | 16.81779 | -68.46526 | 31981 ft | 444 kts | 194° |
| 2026-04-30 02:19 | 16.75641 | -68.47290 | 31979 ft | 444 kts | 194° |
| 2026-04-30 02:20 | 16.69508 | -68.48053 | 31980 ft | 444 kts | 194° |
| 2026-04-30 02:20 | 16.63370 | -68.48816 | 31977 ft | 444 kts | 194° |
| 2026-04-30 02:21 | 16.57269 | -68.49574 | 31979 ft | 444 kts | 194° |
| 2026-04-30 02:21 | 16.51130 | -68.50337 | 31979 ft | 444 kts | 194° |
| 2026-04-30 02:22 | 16.44990 | -68.51098 | 31976 ft | 444 kts | 194° |
| 2026-04-30 02:22 | 16.38848 | -68.51860 | 31976 ft | 444 kts | 194° |
| 2026-04-30 02:23 | 16.32707 | -68.52621 | 31975 ft | 444 kts | 194° |
| 2026-04-30 02:23 | 16.26561 | -68.53382 | 31977 ft | 445 kts | 194° |
| 2026-04-30 02:24 | 16.20416 | -68.54143 | 31979 ft | 445 kts | 194° |
| 2026-04-30 02:24 | 16.14272 | -68.54903 | 31970 ft | 445 kts | 194° |
| 2026-04-30 02:25 | 16.08124 | -68.55663 | 31975 ft | 445 kts | 194° |
| 2026-04-30 02:25 | 16.01972 | -68.56430 | 31971 ft | 444 kts | 195° |
| 2026-04-30 02:25 | 15.99043 | -68.57245 | 31965 ft | 428 kts | 211° |
| 2026-04-30 02:26 | 15.96410 | -68.58641 | 31962 ft | 427 kts | 212° |
| 2026-04-30 02:26 | 15.91094 | -68.61326 | 31970 ft | 427 kts | 212° |
| 2026-04-30 02:27 | 15.85766 | -68.64079 | 31964 ft | 427 kts | 213° |
| 2026-04-30 02:27 | 15.80440 | -68.66847 | 31964 ft | 427 kts | 213° |
| 2026-04-30 02:28 | 15.75129 | -68.69607 | 31971 ft | 427 kts | 213° |
| 2026-04-30 02:28 | 15.69836 | -68.72357 | 31975 ft | 428 kts | 213° |
| 2026-04-30 02:29 | 15.64503 | -68.75125 | 31965 ft | 428 kts | 212° |
| 2026-04-30 02:29 | 15.59183 | -68.77885 | 31964 ft | 428 kts | 212° |
| 2026-04-30 02:30 | 15.53856 | -68.80647 | 31963 ft | 428 kts | 212° |
| 2026-04-30 02:30 | 15.48522 | -68.83411 | 31964 ft | 428 kts | 212° |
| 2026-04-30 02:31 | 15.43195 | -68.86171 | 31963 ft | 428 kts | 212° |
| 2026-04-30 02:31 | 15.37900 | -68.88911 | 31965 ft | 428 kts | 212° |
| 2026-04-30 02:32 | 15.32569 | -68.91669 | 31962 ft | 428 kts | 212° |
| 2026-04-30 02:32 | 15.27248 | -68.94420 | 31957 ft | 428 kts | 212° |
| 2026-04-30 02:33 | 15.21905 | -68.97181 | 31957 ft | 428 kts | 212° |
| 2026-04-30 02:33 | 15.16561 | -68.99941 | 31957 ft | 428 kts | 212° |
| 2026-04-30 02:34 | 15.11225 | -69.02695 | 31956 ft | 428 kts | 212° |
| 2026-04-30 02:34 | 15.05892 | -69.05446 | 31954 ft | 428 kts | 212° |
| 2026-04-30 02:35 | 15.00554 | -69.08199 | 31954 ft | 429 kts | 212° |
| 2026-04-30 02:35 | 14.95248 | -69.10932 | 31951 ft | 429 kts | 212° |
| 2026-04-30 02:36 | 14.89904 | -69.13684 | 31954 ft | 429 kts | 212° |
| 2026-04-30 02:36 | 14.84549 | -69.16441 | 31947 ft | 429 kts | 212° |
| 2026-04-30 02:37 | 14.79191 | -69.19197 | 31951 ft | 430 kts | 211° |
| 2026-04-30 02:37 | 14.73832 | -69.21952 | 31955 ft | 430 kts | 211° |
| 2026-04-30 02:38 | 14.68478 | -69.24703 | 31948 ft | 430 kts | 211° |
| 2026-04-30 02:38 | 14.63117 | -69.27457 | 31947 ft | 430 kts | 211° |
| 2026-04-30 02:39 | 14.57795 | -69.30188 | 31949 ft | 430 kts | 211° |
| 2026-04-30 02:39 | 14.52431 | -69.32940 | 31946 ft | 430 kts | 211° |
| 2026-04-30 02:40 | 14.47069 | -69.35690 | 31945 ft | 431 kts | 211° |
| 2026-04-30 02:40 | 14.41693 | -69.38444 | 31949 ft | 431 kts | 211° |
| 2026-04-30 02:41 | 14.36312 | -69.41200 | 31944 ft | 431 kts | 211° |
| 2026-04-30 02:41 | 14.30938 | -69.43951 | 31945 ft | 432 kts | 211° |
| 2026-04-30 02:42 | 14.25560 | -69.46702 | 31942 ft | 432 kts | 211° |
| 2026-04-30 02:42 | 14.20182 | -69.49453 | 31940 ft | 432 kts | 211° |
| 2026-04-30 02:43 | 14.14818 | -69.52193 | 31897 ft | 421 kts | 211° |
| 2026-04-30 02:43 | 14.12239 | -69.53511 | 31782 ft | 408 kts | 211° |
| 2026-04-30 02:43 | 14.09713 | -69.54801 | 31446 ft | 401 kts | 211° |
| 2026-04-30 02:43 | 14.07220 | -69.56074 | 30961 ft | 399 kts | 211° |
| 2026-04-30 02:44 | 14.04740 | -69.57340 | 30475 ft | 397 kts | 211° |
| 2026-04-30 02:44 | 14.02265 | -69.58603 | 30015 ft | 395 kts | 211° |
| 2026-04-30 02:44 | 13.99808 | -69.59856 | 29492 ft | 392 kts | 210° |
| 2026-04-30 02:44 | 13.97374 | -69.61098 | 29014 ft | 389 kts | 210° |
| 2026-04-30 02:45 | 13.94986 | -69.62315 | 28579 ft | 385 kts | 210° |
| 2026-04-30 02:45 | 13.92603 | -69.63531 | 28141 ft | 381 kts | 210° |
| 2026-04-30 02:45 | 13.90236 | -69.64738 | 27710 ft | 378 kts | 210° |
| 2026-04-30 02:45 | 13.87885 | -69.65936 | 27281 ft | 376 kts | 209° |
| 2026-04-30 02:46 | 13.85526 | -69.67137 | 26842 ft | 378 kts | 209° |
| 2026-04-30 02:46 | 13.83170 | -69.68338 | 26416 ft | 377 kts | 208° |
| 2026-04-30 02:46 | 13.80820 | -69.69535 | 25993 ft | 375 kts | 208° |
| 2026-04-30 02:46 | 13.78481 | -69.70726 | 25559 ft | 374 kts | 208° |
| 2026-04-30 02:47 | 13.76149 | -69.71913 | 25132 ft | 372 kts | 208° |
| 2026-04-30 02:47 | 13.73836 | -69.73091 | 24712 ft | 370 kts | 208° |
| 2026-04-30 02:47 | 13.71541 | -69.74258 | 24284 ft | 368 kts | 208° |
| 2026-04-30 02:47 | 13.69250 | -69.75424 | 23873 ft | 366 kts | 207° |
| 2026-04-30 02:48 | 13.66974 | -69.76581 | 23447 ft | 364 kts | 207° |
| 2026-04-30 02:48 | 13.64738 | -69.77718 | 22963 ft | 362 kts | 207° |
| 2026-04-30 02:48 | 13.62493 | -69.78860 | 22531 ft | 359 kts | 207° |
| 2026-04-30 02:48 | 13.60264 | -69.79993 | 22126 ft | 355 kts | 207° |
| 2026-04-30 02:49 | 13.58054 | -69.81116 | 21727 ft | 352 kts | 207° |
| 2026-04-30 02:49 | 13.55873 | -69.82224 | 21330 ft | 348 kts | 206° |
| 2026-04-30 02:49 | 13.53705 | -69.83326 | 20932 ft | 345 kts | 206° |
| 2026-04-30 02:49 | 13.51562 | -69.84414 | 20539 ft | 342 kts | 206° |
| 2026-04-30 02:50 | 13.49431 | -69.85496 | 20153 ft | 340 kts | 206° |
| 2026-04-30 02:50 | 13.47318 | -69.86568 | 19767 ft | 337 kts | 206° |
| 2026-04-30 02:50 | 13.45227 | -69.87630 | 19385 ft | 335 kts | 206° |
| 2026-04-30 02:50 | 13.43171 | -69.88673 | 19011 ft | 332 kts | 206° |
| 2026-04-30 02:51 | 13.41108 | -69.89720 | 18623 ft | 330 kts | 206° |
| 2026-04-30 02:51 | 13.39050 | -69.90764 | 18247 ft | 328 kts | 206° |
| 2026-04-30 02:51 | 13.37010 | -69.91799 | 17818 ft | 326 kts | 205° |
| 2026-04-30 02:51 | 13.34981 | -69.92828 | 17420 ft | 324 kts | 205° |
| 2026-04-30 02:52 | 13.32958 | -69.93853 | 17034 ft | 325 kts | 205° |
| 2026-04-30 02:52 | 13.30924 | -69.94884 | 16646 ft | 326 kts | 205° |
| 2026-04-30 02:52 | 13.29577 | -69.95567 | 16397 ft | 327 kts | 205° |
| 2026-04-30 02:52 | 13.27538 | -69.96601 | 16013 ft | 327 kts | 205° |
| 2026-04-30 02:53 | 13.25494 | -69.97636 | 15631 ft | 327 kts | 205° |
| 2026-04-30 02:53 | 13.23452 | -69.98670 | 15244 ft | 327 kts | 205° |
| 2026-04-30 02:53 | 13.21416 | -69.99701 | 14858 ft | 326 kts | 205° |
| 2026-04-30 02:53 | 13.19387 | -70.00729 | 14474 ft | 325 kts | 204° |
| 2026-04-30 02:54 | 13.17369 | -70.01751 | 14089 ft | 323 kts | 204° |
| 2026-04-30 02:54 | 13.15359 | -70.02769 | 13701 ft | 321 kts | 204° |
| 2026-04-30 02:54 | 13.13357 | -70.03782 | 13266 ft | 319 kts | 204° |
| 2026-04-30 02:54 | 13.11372 | -70.04787 | 12861 ft | 317 kts | 204° |
| 2026-04-30 02:55 | 13.09400 | -70.05784 | 12475 ft | 315 kts | 204° |
| 2026-04-30 02:55 | 13.07445 | -70.06773 | 12087 ft | 312 kts | 204° |
| 2026-04-30 02:55 | 13.05501 | -70.07756 | 11713 ft | 310 kts | 204° |
| 2026-04-30 02:55 | 13.03598 | -70.08718 | 11342 ft | 308 kts | 204° |
| 2026-04-30 02:56 | 13.01678 | -70.09689 | 10967 ft | 307 kts | 204° |
| 2026-04-30 02:56 | 12.99769 | -70.10653 | 10588 ft | 305 kts | 203° |
| 2026-04-30 02:56 | 12.97864 | -70.11616 | 10255 ft | 302 kts | 204° |
| 2026-04-30 02:56 | 12.96007 | -70.12556 | 10092 ft | 293 kts | 203° |
| 2026-04-30 02:57 | 12.94203 | -70.13468 | 9883 ft | 286 kts | 203° |
| 2026-04-30 02:57 | 12.92407 | -70.14374 | 9499 ft | 289 kts | 203° |
| 2026-04-30 02:57 | 12.90596 | -70.15288 | 9108 ft | 290 kts | 203° |
| 2026-04-30 02:57 | 12.88710 | -70.15979 | 8686 ft | 286 kts | 186° |
| 2026-04-30 02:58 | 12.86748 | -70.16235 | 8321 ft | 283 kts | 185° |
| 2026-04-30 02:58 | 12.84828 | -70.16517 | 8001 ft | 281 kts | 184° |
| 2026-04-30 02:58 | 12.82880 | -70.16806 | 7665 ft | 279 kts | 185° |
| 2026-04-30 02:58 | 12.80962 | -70.17093 | 7308 ft | 277 kts | 185° |
| 2026-04-30 02:59 | 12.79058 | -70.17378 | 6975 ft | 276 kts | 185° |
| 2026-04-30 02:59 | 12.77184 | -70.17658 | 6637 ft | 275 kts | 185° |
| 2026-04-30 02:59 | 12.75298 | -70.17940 | 6291 ft | 274 kts | 184° |
| 2026-04-30 02:59 | 12.73418 | -70.18222 | 5933 ft | 273 kts | 185° |
| 2026-04-30 03:00 | 12.71538 | -70.18504 | 5577 ft | 271 kts | 185° |
| 2026-04-30 03:00 | 12.69677 | -70.18783 | 5238 ft | 270 kts | 185° |
| 2026-04-30 03:00 | 12.67825 | -70.19060 | 4897 ft | 268 kts | 185° |
| 2026-04-30 03:00 | 12.66009 | -70.19334 | 4743 ft | 259 kts | 184° |
| 2026-04-30 03:01 | 12.64266 | -70.19642 | 4578 ft | 251 kts | 190° |
| 2026-04-30 03:01 | 12.62594 | -70.20062 | 4415 ft | 243 kts | 189° |
| 2026-04-30 03:01 | 12.60972 | -70.20463 | 4259 ft | 235 kts | 189° |
| 2026-04-30 03:01 | 12.59442 | -70.20836 | 4170 ft | 224 kts | 188° |
| 2026-04-30 03:02 | 12.57949 | -70.21196 | 4024 ft | 216 kts | 188° |
| 2026-04-30 03:02 | 12.56504 | -70.21255 | 3763 ft | 202 kts | 160° |
| 2026-04-30 03:02 | 12.55379 | -70.20535 | 3466 ft | 185 kts | 127° |
| 2026-04-30 03:02 | 12.54712 | -70.19476 | 3234 ft | 173 kts | 115° |
| 2026-04-30 03:03 | 12.54264 | -70.18360 | 3007 ft | 163 kts | 107° |
| 2026-04-30 03:03 | 12.53670 | -70.16213 | 2611 ft | 152 kts | 103° |
| 2026-04-30 03:03 | 12.53420 | -70.15197 | 2424 ft | 142 kts | 103° |
| 2026-04-30 03:04 | 12.53186 | -70.14234 | 2251 ft | 136 kts | 102° |
| 2026-04-30 03:04 | 12.52960 | -70.13298 | 2067 ft | 134 kts | 101° |
| 2026-04-30 03:04 | 12.52741 | -70.12385 | 1890 ft | 133 kts | 101° |
| 2026-04-30 03:04 | 12.52519 | -70.11457 | 1707 ft | 134 kts | 101° |
| 2026-04-30 03:05 | 12.52296 | -70.10527 | 1532 ft | 134 kts | 101° |
| 2026-04-30 03:05 | 12.52074 | -70.09597 | 1352 ft | 134 kts | 101° |
| 2026-04-30 03:05 | 12.51854 | -70.08678 | 1183 ft | 135 kts | 101° |
| 2026-04-30 03:05 | 12.51629 | -70.07743 | 1006 ft | 133 kts | 101° |
| 2026-04-30 03:06 | 12.51407 | -70.06828 | 813 ft | 132 kts | 99° |
| 2026-04-30 03:06 | 12.51171 | -70.05893 | 656 ft | 139 kts | 99° |
| 2026-04-30 03:06 | 12.50931 | -70.04922 | 482 ft | 140 kts | 99° |
| 2026-04-30 03:06 | 12.50721 | -70.03977 | 275 ft | 136 kts | 100° |
| 2026-04-30 03:07 | 12.50501 | -70.03020 | 110 ft | 140 kts | 104° |
| 2026-04-30 03:07 | 12.50270 | -70.02069 | 42 ft | 128 kts | 104° |
| 2026-04-30 03:07 | 12.50102 | -70.01367 | 50 ft | 68 kts | 103° |
| 2026-04-30 03:07 | 12.50033 | -70.01070 | 52 ft | 13 kts | 97° |
| 2026-04-30 03:08 | 12.50094 | -70.01004 | 51 ft | 15 kts | 13° |
| 2026-04-30 03:08 | 12.50191 | -70.00979 | 49 ft | 8 kts | 19° |
| 2026-04-30 03:08 | 12.50224 | -70.00925 | 49 ft | 10 kts | 82° |
| 2026-04-30 03:08 | 12.50211 | -70.00845 | 47 ft | 12 kts | 104° |
| 2026-04-30 03:09 | 12.50189 | -70.00751 | 49 ft | 15 kts | 104° |
| 2026-04-30 03:09 | 12.50191 | -70.00717 | 49 ft | 1 kts | 30° |
| 2026-04-30 03:09 | 12.50205 | -70.00713 | 47 ft | 4 kts | 6° |
| 2026-04-30 03:09 | 12.50240 | -70.00708 | 49 ft | 7 kts | 11° |
| 2026-04-30 03:10 | 12.50258 | -70.00704 | 49 ft | 2 kts | 14° |
| 2026-04-30 03:10 | 12.50259 | -70.00703 | 49 ft | 0 kts | 15° |